sensor_id;sensor_type;location;lat;lon;timestamp;pressure;altitude;pressure_sealevel;temperature;humidity
43741;BME280;29352;48.708;9.290;2023-02-21T00:01:46;98361.16;;;-5.13;76.23
43741;BME280;29352;48.708;9.290;2023-02-21T00:04:31;98369.63;;;-5.22;76.21
43741;BME280;29352;48.708;9.290;2023-02-21T00:07:16;98368.59;;;-5.32;78.02
43741;BME280;29352;48.708;9.290;2023-02-21T00:10:00;98361.91;;;-5.24;77.03
43741;BME280;29352;48.708;9.290;2023-02-21T00:12:45;98369.09;;;-5.53;76.82
43741;BME280;29352;48.708;9.290;2023-02-21T00:15:29;98359.69;;;-5.68;77.56
43741;BME280;29352;48.708;9.290;2023-02-21T00:18:13;98359.31;;;-5.49;78.06
43741;BME280;29352;48.708;9.290;2023-02-21T00:20:57;98353.38;;;-5.26;78.09
43741;BME280;29352;48.708;9.290;2023-02-21T00:23:41;98366.50;;;-5.53;78.03
43741;BME280;29352;48.708;9.290;2023-02-21T00:26:25;98358.97;;;-5.57;77.99
43741;BME280;29352;48.708;9.290;2023-02-21T00:29:09;98349.22;;;-5.41;77.93
43741;BME280;29352;48.708;9.290;2023-02-21T00:31:53;98353.16;;;-5.61;77.85
43741;BME280;29352;48.708;9.290;2023-02-21T00:34:37;98354.41;;;-5.41;77.60
43741;BME280;29352;48.708;9.290;2023-02-21T00:37:22;98352.84;;;-5.43;77.58
43741;BME280;29352;48.708;9.290;2023-02-21T00:40:06;98351.50;;;-5.36;76.77
43741;BME280;29352;48.708;9.290;2023-02-21T00:42:53;98350.06;;;-5.15;76.91
43741;BME280;29352;48.708;9.290;2023-02-21T00:45:37;98348.63;;;-4.82;75.83
43741;BME280;29352;48.708;9.290;2023-02-21T00:48:22;98354.63;;;-5.18;75.62
43741;BME280;29352;48.708;9.290;2023-02-21T00:51:07;98345.66;;;-5.27;75.95
43741;BME280;29352;48.708;9.290;2023-02-21T00:53:52;98344.44;;;-5.34;76.29
43741;BME280;29352;48.708;9.290;2023-02-21T00:56:36;98346.59;;;-5.54;76.87
43741;BME280;29352;48.708;9.290;2023-02-21T00:59:20;98337.56;;;-5.48;76.56
43741;BME280;29352;48.708;9.290;2023-02-21T01:02:05;98343.38;;;-5.44;76.24
43741;BME280;29352;48.708;9.290;2023-02-21T01:04:49;98343.09;;;-5.53;77.34
43741;BME280;29352;48.708;9.290;2023-02-21T01:07:33;98330.69;;;-5.36;77.13
43741;BME280;29352;48.708;9.290;2023-02-21T01:10:18;98337.66;;;-5.62;77.22
43741;BME280;29352;48.708;9.290;2023-02-21T01:13:03;98343.25;;;-5.68;77.47
43741;BME280;29352;48.708;9.290;2023-02-21T01:15:47;98339.75;;;-5.42;76.17
43741;BME280;29352;48.708;9.290;2023-02-21T01:18:31;98325.88;;;-5.30;76.20
43741;BME280;29352;48.708;9.290;2023-02-21T01:21:17;98331.09;;;-5.55;76.95
43741;BME280;29352;48.708;9.290;2023-02-21T01:24:03;98333.06;;;-5.84;77.76
43741;BME280;29352;48.708;9.290;2023-02-21T01:26:48;98337.16;;;-6.07;79.21
43741;BME280;29352;48.708;9.290;2023-02-21T01:29:33;98343.53;;;-5.99;78.71
43741;BME280;29352;48.708;9.290;2023-02-21T01:32:17;98333.56;;;-5.92;79.29
43741;BME280;29352;48.708;9.290;2023-02-21T01:35:02;98330.97;;;-5.79;78.02
43741;BME280;29352;48.708;9.290;2023-02-21T01:37:46;98330.88;;;-5.90;78.55
43741;BME280;29352;48.708;9.290;2023-02-21T01:40:30;98328.63;;;-6.09;78.53
43741;BME280;29352;48.708;9.290;2023-02-21T01:43:16;98333.22;;;-6.00;79.48
43741;BME280;29352;48.708;9.290;2023-02-21T01:46:03;98325.59;;;-5.63;77.59
43741;BME280;29352;48.708;9.290;2023-02-21T01:48:51;98332.84;;;-5.94;79.73
43741;BME280;29352;48.708;9.290;2023-02-21T01:51:41;98325.63;;;-6.03;79.46
43741;BME280;29352;48.708;9.290;2023-02-21T01:54:30;98328.25;;;-6.03;79.77
43741;BME280;29352;48.708;9.290;2023-02-21T01:57:19;98323.91;;;-5.90;78.36
43741;BME280;29352;48.708;9.290;2023-02-21T02:00:09;98329.19;;;-6.04;79.59
43741;BME280;29352;48.708;9.290;2023-02-21T02:03:07;98320.94;;;-6.11;79.44
43741;BME280;29352;48.708;9.290;2023-02-21T02:06:02;98314.09;;;-6.12;79.17
43741;BME280;29352;48.708;9.290;2023-02-21T02:08:51;98311.69;;;-6.02;78.35
43741;BME280;29352;48.708;9.290;2023-02-21T02:33:36;98303.38;;;-6.07;78.44
43741;BME280;29352;48.708;9.290;2023-02-21T02:36:40;98304.03;;;-5.91;79.57
43741;BME280;29352;48.708;9.290;2023-02-21T02:42:18;98292.66;;;-6.15;79.59
43741;BME280;29352;48.708;9.290;2023-02-21T02:45:10;98288.78;;;-6.23;78.75
43741;BME280;29352;48.708;9.290;2023-02-21T02:47:42;98286.06;;;-6.34;79.93
43741;BME280;29352;48.708;9.290;2023-02-21T02:50:12;98289.25;;;-6.03;79.29
43741;BME280;29352;48.708;9.290;2023-02-21T02:52:49;98281.53;;;-6.18;78.18
43741;BME280;29352;48.708;9.290;2023-02-21T02:58:27;98292.59;;;-6.41;80.70
43741;BME280;29352;48.708;9.290;2023-02-21T03:13:03;98289.53;;;-6.60;80.04
43741;BME280;29352;48.708;9.290;2023-02-21T03:18:49;98291.56;;;-6.66;79.48
43741;BME280;29352;48.708;9.290;2023-02-21T03:21:28;98293.66;;;-6.58;79.24
43741;BME280;29352;48.708;9.290;2023-02-21T03:24:01;98295.38;;;-6.44;80.69
43741;BME280;29352;48.708;9.290;2023-02-21T03:26:34;98291.44;;;-6.50;80.09
43741;BME280;29352;48.708;9.290;2023-02-21T03:29:03;98284.75;;;-6.81;80.41
43741;BME280;29352;48.708;9.290;2023-02-21T03:31:36;98286.81;;;-6.86;80.77
43741;BME280;29352;48.708;9.290;2023-02-21T03:34:07;98282.31;;;-6.70;82.09
43741;BME280;29352;48.708;9.290;2023-02-21T03:36:35;98277.84;;;-6.95;81.39
43741;BME280;29352;48.708;9.290;2023-02-21T03:39:02;98282.16;;;-6.81;80.78
43741;BME280;29352;48.708;9.290;2023-02-21T03:41:28;98282.84;;;-6.64;80.68
43741;BME280;29352;48.708;9.290;2023-02-21T03:43:54;98278.13;;;-6.45;80.42
43741;BME280;29352;48.708;9.290;2023-02-21T03:46:19;98280.06;;;-6.61;80.78
43741;BME280;29352;48.708;9.290;2023-02-21T03:48:45;98280.34;;;-6.93;81.31
43741;BME280;29352;48.708;9.290;2023-02-21T03:51:11;98284.28;;;-6.73;81.18
43741;BME280;29352;48.708;9.290;2023-02-21T03:53:37;98282.34;;;-6.84;82.06
43741;BME280;29352;48.708;9.290;2023-02-21T03:56:03;98286.28;;;-6.64;82.22
43741;BME280;29352;48.708;9.290;2023-02-21T03:58:29;98285.28;;;-6.76;80.48
43741;BME280;29352;48.708;9.290;2023-02-21T04:00:54;98278.25;;;-6.74;80.16
43741;BME280;29352;48.708;9.290;2023-02-21T04:03:20;98276.97;;;-6.81;81.28
43741;BME280;29352;48.708;9.290;2023-02-21T04:05:45;98282.84;;;-6.64;79.69
43741;BME280;29352;48.708;9.290;2023-02-21T04:08:11;98283.03;;;-6.68;79.83
43741;BME280;29352;48.708;9.290;2023-02-21T04:10:37;98288.06;;;-6.79;80.13
43741;BME280;29352;48.708;9.290;2023-02-21T04:13:03;98290.47;;;-6.76;81.06
43741;BME280;29352;48.708;9.290;2023-02-21T04:15:28;98282.47;;;-7.00;81.32
43741;BME280;29352;48.708;9.290;2023-02-21T04:17:54;98284.84;;;-6.82;81.02
43741;BME280;29352;48.708;9.290;2023-02-21T04:20:19;98283.31;;;-6.99;81.05
43741;BME280;29352;48.708;9.290;2023-02-21T04:22:45;98289.59;;;-6.89;80.98
43741;BME280;29352;48.708;9.290;2023-02-21T04:25:10;98279.78;;;-6.57;80.80
43741;BME280;29352;48.708;9.290;2023-02-21T04:27:35;98274.53;;;-6.70;80.99
43741;BME280;29352;48.708;9.290;2023-02-21T04:30:01;98271.25;;;-6.59;80.23
43741;BME280;29352;48.708;9.290;2023-02-21T04:32:27;98274.47;;;-6.82;79.31
43741;BME280;29352;48.708;9.290;2023-02-21T04:34:52;98271.16;;;-6.84;81.98
43741;BME280;29352;48.708;9.290;2023-02-21T04:37:18;98279.72;;;-6.70;81.29
43741;BME280;29352;48.708;9.290;2023-02-21T04:39:43;98287.44;;;-6.82;80.78
43741;BME280;29352;48.708;9.290;2023-02-21T04:42:09;98287.06;;;-6.76;81.02
43741;BME280;29352;48.708;9.290;2023-02-21T04:44:35;98289.34;;;-6.72;81.46
43741;BME280;29352;48.708;9.290;2023-02-21T04:47:01;98290.63;;;-6.92;81.94
43741;BME280;29352;48.708;9.290;2023-02-21T04:49:26;98288.34;;;-7.10;81.90
43741;BME280;29352;48.708;9.290;2023-02-21T04:51:52;98286.88;;;-6.73;84.07
43741;BME280;29352;48.708;9.290;2023-02-21T04:54:19;98284.09;;;-6.70;80.74
43741;BME280;29352;48.708;9.290;2023-02-21T04:56:45;98277.75;;;-6.93;81.55
43741;BME280;29352;48.708;9.290;2023-02-21T04:59:11;98285.00;;;-7.27;81.81
43741;BME280;29352;48.708;9.290;2023-02-21T05:01:36;98283.44;;;-6.74;81.31
43741;BME280;29352;48.708;9.290;2023-02-21T05:04:02;98271.78;;;-6.81;80.43
43741;BME280;29352;48.708;9.290;2023-02-21T05:06:29;98278.28;;;-6.88;81.01
43741;BME280;29352;48.708;9.290;2023-02-21T05:08:56;98277.28;;;-7.00;82.40
43741;BME280;29352;48.708;9.290;2023-02-21T05:11:22;98279.81;;;-6.98;82.32
43741;BME280;29352;48.708;9.290;2023-02-21T05:13:49;98279.16;;;-6.75;81.50
43741;BME280;29352;48.708;9.290;2023-02-21T05:16:16;98279.63;;;-6.95;82.15
43741;BME280;29352;48.708;9.290;2023-02-21T05:18:47;98269.28;;;-6.82;81.75
43741;BME280;29352;48.708;9.290;2023-02-21T05:21:15;98260.06;;;-6.74;82.05
43741;BME280;29352;48.708;9.290;2023-02-21T05:23:43;98264.81;;;-6.80;82.22
43741;BME280;29352;48.708;9.290;2023-02-21T05:26:25;98266.81;;;-6.98;81.37
43741;BME280;29352;48.708;9.290;2023-02-21T05:28:55;98269.78;;;-7.04;81.41
43741;BME280;29352;48.708;9.290;2023-02-21T05:31:21;98273.22;;;-7.04;81.80
43741;BME280;29352;48.708;9.290;2023-02-21T05:33:46;98275.53;;;-7.14;81.87
43741;BME280;29352;48.708;9.290;2023-02-21T05:36:12;98270.97;;;-6.96;81.03
43741;BME280;29352;48.708;9.290;2023-02-21T05:38:46;98274.56;;;-7.25;82.29
43741;BME280;29352;48.708;9.290;2023-02-21T05:41:15;98278.63;;;-7.21;81.94
43741;BME280;29352;48.708;9.290;2023-02-21T05:43:45;98272.22;;;-7.01;84.30
43741;BME280;29352;48.708;9.290;2023-02-21T05:46:29;98279.88;;;-7.00;82.99
43741;BME280;29352;48.708;9.290;2023-02-21T05:48:58;98281.16;;;-6.93;82.41
43741;BME280;29352;48.708;9.290;2023-02-21T05:51:25;98283.69;;;-6.91;83.17
43741;BME280;29352;48.708;9.290;2023-02-21T05:53:52;98274.63;;;-6.98;83.01
43741;BME280;29352;48.708;9.290;2023-02-21T05:56:19;98276.38;;;-6.99;84.08
43741;BME280;29352;48.708;9.290;2023-02-21T05:58:48;98277.47;;;-7.03;82.64
43741;BME280;29352;48.708;9.290;2023-02-21T06:01:13;98274.84;;;-6.88;82.47
43741;BME280;29352;48.708;9.290;2023-02-21T06:03:38;98281.66;;;-7.00;83.06
43741;BME280;29352;48.708;9.290;2023-02-21T06:06:04;98275.59;;;-6.86;83.09
43741;BME280;29352;48.708;9.290;2023-02-21T06:08:30;98281.09;;;-6.91;82.68
43741;BME280;29352;48.708;9.290;2023-02-21T06:10:55;98282.84;;;-6.92;80.65
43741;BME280;29352;48.708;9.290;2023-02-21T06:13:21;98278.22;;;-7.01;81.03
43741;BME280;29352;48.708;9.290;2023-02-21T06:15:46;98283.72;;;-7.05;80.91
43741;BME280;29352;48.708;9.290;2023-02-21T06:18:14;98278.91;;;-7.26;81.30
43741;BME280;29352;48.708;9.290;2023-02-21T06:20:40;98268.63;;;-7.27;81.46
43741;BME280;29352;48.708;9.290;2023-02-21T06:23:06;98275.00;;;-7.19;81.71
43741;BME280;29352;48.708;9.290;2023-02-21T06:25:32;98268.78;;;-7.16;81.60
43741;BME280;29352;48.708;9.290;2023-02-21T06:27:57;98272.91;;;-6.99;81.37
43741;BME280;29352;48.708;9.290;2023-02-21T06:30:23;98265.75;;;-6.54;80.44
43741;BME280;29352;48.708;9.290;2023-02-21T06:32:49;98268.34;;;-6.14;79.38
43741;BME280;29352;48.708;9.290;2023-02-21T06:35:14;98263.84;;;-6.12;78.11
43741;BME280;29352;48.708;9.290;2023-02-21T06:37:40;98265.06;;;-5.03;74.26
43741;BME280;29352;48.708;9.290;2023-02-21T06:40:06;98261.50;;;-4.65;73.29
43741;BME280;29352;48.708;9.290;2023-02-21T06:42:32;98263.34;;;-4.43;72.66
43741;BME280;29352;48.708;9.290;2023-02-21T06:44:57;98265.00;;;-3.72;71.90
43741;BME280;29352;48.708;9.290;2023-02-21T06:47:23;98268.50;;;-3.49;70.65
43741;BME280;29352;48.708;9.290;2023-02-21T06:49:48;98271.97;;;-2.71;69.70
43741;BME280;29352;48.708;9.290;2023-02-21T06:52:14;98258.34;;;-1.80;67.82
43741;BME280;29352;48.708;9.290;2023-02-21T06:54:40;98263.97;;;-2.05;66.24
43741;BME280;29352;48.708;9.290;2023-02-21T06:57:05;98277.88;;;-2.05;66.44
43741;BME280;29352;48.708;9.290;2023-02-21T06:59:31;98277.28;;;-2.29;66.64
43741;BME280;29352;48.708;9.290;2023-02-21T07:01:57;98281.66;;;-1.98;66.00
43741;BME280;29352;48.708;9.290;2023-02-21T07:04:23;98276.31;;;-2.28;67.03
43741;BME280;29352;48.708;9.290;2023-02-21T07:06:49;98276.94;;;-2.68;67.29
43741;BME280;29352;48.708;9.290;2023-02-21T07:09:15;98279.94;;;-2.41;66.78
43741;BME280;29352;48.708;9.290;2023-02-21T07:11:41;98274.94;;;-1.18;64.50
43741;BME280;29352;48.708;9.290;2023-02-21T07:14:09;98267.66;;;-0.06;61.96
43741;BME280;29352;48.708;9.290;2023-02-21T07:16:35;98267.88;;;0.77;60.36
43741;BME280;29352;48.708;9.290;2023-02-21T07:19:00;98271.84;;;1.18;58.90
43741;BME280;29352;48.708;9.290;2023-02-21T07:21:26;98259.53;;;2.52;55.58
43741;BME280;29352;48.708;9.290;2023-02-21T07:23:51;98268.56;;;0.41;58.65
43741;BME280;29352;48.708;9.290;2023-02-21T07:26:17;98262.41;;;2.67;55.36
43741;BME280;29352;48.708;9.290;2023-02-21T07:28:42;98258.03;;;2.83;54.74
43741;BME280;29352;48.708;9.290;2023-02-21T07:31:10;98265.78;;;2.51;55.20
43741;BME280;29352;48.708;9.290;2023-02-21T07:33:35;98257.97;;;4.50;51.82
43741;BME280;29352;48.708;9.290;2023-02-21T07:36:01;98249.44;;;5.81;49.45
43741;BME280;29352;48.708;9.290;2023-02-21T07:38:28;98251.75;;;5.21;50.06
43741;BME280;29352;48.708;9.290;2023-02-21T07:41:00;98259.38;;;5.16;50.08
43741;BME280;29352;48.708;9.290;2023-02-21T07:43:29;98266.22;;;4.55;51.06
43741;BME280;29352;48.708;9.290;2023-02-21T07:45:55;98268.28;;;2.87;54.03
43741;BME280;29352;48.708;9.290;2023-02-21T07:48:22;98266.44;;;3.21;54.50
43741;BME280;29352;48.708;9.290;2023-02-21T07:50:48;98268.84;;;4.47;51.18
43741;BME280;29352;48.708;9.290;2023-02-21T07:53:15;98273.19;;;4.07;52.24
43741;BME280;29352;48.708;9.290;2023-02-21T07:55:41;98267.19;;;3.05;54.45
43741;BME280;29352;48.708;9.290;2023-02-21T07:58:06;98267.19;;;3.56;53.28
43741;BME280;29352;48.708;9.290;2023-02-21T08:00:32;98266.72;;;4.10;52.29
43741;BME280;29352;48.708;9.290;2023-02-21T08:03:00;98259.13;;;4.23;51.49
43741;BME280;29352;48.708;9.290;2023-02-21T08:05:26;98264.75;;;5.93;49.18
43741;BME280;29352;48.708;9.290;2023-02-21T08:07:51;98258.28;;;6.49;48.43
43741;BME280;29352;48.708;9.290;2023-02-21T08:10:21;98261.94;;;7.22;46.08
43741;BME280;29352;48.708;9.290;2023-02-21T08:12:49;98257.44;;;7.58;46.48
43741;BME280;29352;48.708;9.290;2023-02-21T08:15:14;98252.88;;;7.16;47.47
43741;BME280;29352;48.708;9.290;2023-02-21T08:17:40;98266.66;;;6.00;49.18
43741;BME280;29352;48.708;9.290;2023-02-21T08:20:05;98261.19;;;6.69;48.22
43741;BME280;29352;48.708;9.290;2023-02-21T08:22:32;98252.84;;;7.67;47.30
43741;BME280;29352;48.708;9.290;2023-02-21T08:24:57;98258.25;;;7.59;47.87
43741;BME280;29352;48.708;9.290;2023-02-21T08:27:22;98259.41;;;6.84;48.19
43741;BME280;29352;48.708;9.290;2023-02-21T08:29:49;98263.38;;;7.61;47.44
43741;BME280;29352;48.708;9.290;2023-02-21T08:32:16;98270.41;;;8.11;46.23
43741;BME280;29352;48.708;9.290;2023-02-21T08:34:48;98266.34;;;7.72;47.39
43741;BME280;29352;48.708;9.290;2023-02-21T08:37:15;98265.22;;;8.52;45.89
43741;BME280;29352;48.708;9.290;2023-02-21T08:39:49;98261.06;;;8.15;46.90
43741;BME280;29352;48.708;9.290;2023-02-21T08:42:19;98264.56;;;8.16;47.18
43741;BME280;29352;48.708;9.290;2023-02-21T08:44:46;98264.41;;;7.23;48.38
43741;BME280;29352;48.708;9.290;2023-02-21T08:47:13;98262.34;;;7.76;47.79
43741;BME280;29352;48.708;9.290;2023-02-21T08:49:47;98262.75;;;7.95;48.54
43741;BME280;29352;48.708;9.290;2023-02-21T08:52:15;98261.63;;;8.11;47.20
43741;BME280;29352;48.708;9.290;2023-02-21T08:54:42;98256.69;;;7.65;48.22
43741;BME280;29352;48.708;9.290;2023-02-21T08:57:09;98258.97;;;8.11;47.55
43741;BME280;29352;48.708;9.290;2023-02-21T08:59:34;98253.38;;;8.83;45.28
43741;BME280;29352;48.708;9.290;2023-02-21T09:02:02;98256.97;;;7.91;46.99
43741;BME280;29352;48.708;9.290;2023-02-21T09:04:27;98257.06;;;8.26;46.54
43741;BME280;29352;48.708;9.290;2023-02-21T09:06:54;98255.75;;;8.43;46.58
43741;BME280;29352;48.708;9.290;2023-02-21T09:09:21;98247.91;;;8.91;47.13
43741;BME280;29352;48.708;9.290;2023-02-21T09:11:46;98257.56;;;7.72;47.84
43741;BME280;29352;48.708;9.290;2023-02-21T09:14:15;98253.59;;;8.25;47.20
43741;BME280;29352;48.708;9.290;2023-02-21T09:16:41;98254.19;;;7.99;47.91
43741;BME280;29352;48.708;9.290;2023-02-21T09:19:07;98253.28;;;8.42;47.15
43741;BME280;29352;48.708;9.290;2023-02-21T09:21:33;98248.28;;;8.25;46.60
43741;BME280;29352;48.708;9.290;2023-02-21T09:24:00;98254.28;;;7.70;47.86
43741;BME280;29352;48.708;9.290;2023-02-21T09:26:27;98249.38;;;7.67;49.21
43741;BME280;29352;48.708;9.290;2023-02-21T09:28:57;98246.38;;;8.75;47.60
43741;BME280;29352;48.708;9.290;2023-02-21T09:31:23;98250.53;;;8.57;47.33
43741;BME280;29352;48.708;9.290;2023-02-21T09:33:49;98240.63;;;9.13;46.78
43741;BME280;29352;48.708;9.290;2023-02-21T09:36:14;98244.50;;;7.92;48.11
43741;BME280;29352;48.708;9.290;2023-02-21T09:38:40;98244.59;;;8.54;47.66
43741;BME280;29352;48.708;9.290;2023-02-21T09:41:08;98243.88;;;8.39;48.18
43741;BME280;29352;48.708;9.290;2023-02-21T09:43:40;98243.91;;;7.53;48.60
43741;BME280;29352;48.708;9.290;2023-02-21T09:46:24;98238.50;;;8.95;47.54
43741;BME280;29352;48.708;9.290;2023-02-21T09:48:57;98242.63;;;8.42;48.17
43741;BME280;29352;48.708;9.290;2023-02-21T09:51:24;98231.53;;;8.32;48.56
43741;BME280;29352;48.708;9.290;2023-02-21T09:53:54;98233.84;;;8.41;48.29
43741;BME280;29352;48.708;9.290;2023-02-21T09:56:29;98237.53;;;6.97;50.35
43741;BME280;29352;48.708;9.290;2023-02-21T09:58:59;98228.41;;;7.35;49.68
43741;BME280;29352;48.708;9.290;2023-02-21T10:01:48;98235.59;;;8.27;48.63
43741;BME280;29352;48.708;9.290;2023-02-21T10:13:40;98217.56;;;8.86;47.52
43741;BME280;29352;48.708;9.290;2023-02-21T10:16:23;98216.25;;;9.16;47.84
43741;BME280;29352;48.708;9.290;2023-02-21T10:19:15;98208.91;;;8.77;47.36
43741;BME280;29352;48.708;9.290;2023-02-21T10:21:48;98210.75;;;9.31;47.49
43741;BME280;29352;48.708;9.290;2023-02-21T10:24:22;98210.28;;;9.95;46.55
43741;BME280;29352;48.708;9.290;2023-02-21T10:29:39;98206.59;;;9.09;48.47
43741;BME280;29352;48.708;9.290;2023-02-21T10:32:11;98212.31;;;9.87;47.01
43741;BME280;29352;48.708;9.290;2023-02-21T10:34:38;98203.31;;;9.81;46.64
43741;BME280;29352;48.708;9.290;2023-02-21T10:45:46;98210.66;;;10.39;45.85
43741;BME280;29352;48.708;9.290;2023-02-21T10:48:19;98207.00;;;9.87;46.90
43741;BME280;29352;48.708;9.290;2023-02-21T10:51:10;98211.69;;;9.98;46.43
43741;BME280;29352;48.708;9.290;2023-02-21T10:53:42;98201.66;;;10.33;46.88
43741;BME280;29352;48.708;9.290;2023-02-21T10:58:49;98192.19;;;10.37;46.30
43741;BME280;29352;48.708;9.290;2023-02-21T11:03:54;98186.38;;;10.74;45.65
43741;BME280;29352;48.708;9.290;2023-02-21T11:09:41;98181.28;;;10.46;46.21
43741;BME280;29352;48.708;9.290;2023-02-21T11:14:41;98169.41;;;10.35;46.35
43741;BME280;29352;48.708;9.290;2023-02-21T11:17:15;98170.06;;;10.10;47.29
43741;BME280;29352;48.708;9.290;2023-02-21T11:22:40;98169.28;;;10.81;45.59
43741;BME280;29352;48.708;9.290;2023-02-21T11:27:37;98155.56;;;10.71;44.89
43741;BME280;29352;48.708;9.290;2023-02-21T11:30:15;98148.22;;;10.60;46.20
43741;BME280;29352;48.708;9.290;2023-02-21T11:32:51;98144.38;;;10.29;46.82
43741;BME280;29352;48.708;9.290;2023-02-21T11:35:30;98137.63;;;10.92;45.42
43741;BME280;29352;48.708;9.290;2023-02-21T11:38:04;98134.66;;;10.68;44.79
43741;BME280;29352;48.708;9.290;2023-02-21T11:40:44;98128.34;;;10.56;45.69
43741;BME280;29352;48.708;9.290;2023-02-21T11:43:28;98128.00;;;10.19;45.54
43741;BME280;29352;48.708;9.290;2023-02-21T11:52:02;98119.78;;;10.92;45.50
43741;BME280;29352;48.708;9.290;2023-02-21T11:54:32;98108.13;;;11.50;43.60
43741;BME280;29352;48.708;9.290;2023-02-21T12:02:46;98092.78;;;11.07;44.84
43741;BME280;29352;48.708;9.290;2023-02-21T12:18:51;98054.84;;;11.23;43.54
43741;BME280;29352;48.708;9.290;2023-02-21T12:34:11;98024.66;;;11.73;42.52
43741;BME280;29352;48.708;9.290;2023-02-21T12:36:48;98025.28;;;11.93;42.80
43741;BME280;29352;48.708;9.290;2023-02-21T12:42:56;98011.44;;;12.51;41.83
43741;BME280;29352;48.708;9.290;2023-02-21T12:45:35;98009.44;;;11.92;42.53
43741;BME280;29352;48.708;9.290;2023-02-21T12:48:38;98008.31;;;11.99;42.31
43741;BME280;29352;48.708;9.290;2023-02-21T12:51:15;97994.84;;;12.06;42.19
43741;BME280;29352;48.708;9.290;2023-02-21T12:56:32;97981.94;;;11.84;43.11
43741;BME280;29352;48.708;9.290;2023-02-21T13:01:46;97973.03;;;12.27;42.96
43741;BME280;29352;48.708;9.290;2023-02-21T13:04:45;97965.94;;;12.51;42.46
43741;BME280;29352;48.708;9.290;2023-02-21T13:07:39;97968.13;;;12.06;43.37
43741;BME280;29352;48.708;9.290;2023-02-21T13:13:31;97952.31;;;10.99;44.79
43741;BME280;29352;48.708;9.290;2023-02-21T13:16:03;97949.75;;;11.11;44.71
43741;BME280;29352;48.708;9.290;2023-02-21T13:18:51;97933.44;;;12.18;44.49
43741;BME280;29352;48.708;9.290;2023-02-21T13:32:59;97917.63;;;12.58;43.64
43741;BME280;29352;48.708;9.290;2023-02-21T13:35:32;97910.84;;;12.44;43.21
43741;BME280;29352;48.708;9.290;2023-02-21T13:38:04;97908.69;;;12.64;44.39
43741;BME280;29352;48.708;9.290;2023-02-21T13:40:41;97899.41;;;12.37;43.80
43741;BME280;29352;48.708;9.290;2023-02-21T13:43:26;97901.59;;;12.09;43.13
43741;BME280;29352;48.708;9.290;2023-02-21T13:47:01;97889.03;;;12.70;42.44
43741;BME280;29352;48.708;9.290;2023-02-21T13:55:27;97879.50;;;12.21;44.05
43741;BME280;29352;48.708;9.290;2023-02-21T14:13:40;97854.56;;;12.62;42.35
43741;BME280;29352;48.708;9.290;2023-02-21T14:21:19;97844.25;;;12.05;43.44
43741;BME280;29352;48.708;9.290;2023-02-21T14:23:57;97849.69;;;12.17;43.07
43741;BME280;29352;48.708;9.290;2023-02-21T14:49:14;97816.00;;;12.28;42.61
43741;BME280;29352;48.708;9.290;2023-02-21T14:52:18;97808.66;;;11.63;43.25
43741;BME280;29352;48.708;9.290;2023-02-21T14:55:30;97812.44;;;11.55;44.24
43741;BME280;29352;48.708;9.290;2023-02-21T15:03:36;97799.56;;;11.82;43.34
43741;BME280;29352;48.708;9.290;2023-02-21T15:06:13;97804.47;;;11.67;43.19
43741;BME280;29352;48.708;9.290;2023-02-21T15:08:52;97797.13;;;11.26;44.08
43741;BME280;29352;48.708;9.290;2023-02-21T15:14:19;97796.50;;;11.30;44.31
43741;BME280;29352;48.708;9.290;2023-02-21T15:16:59;97792.94;;;11.00;44.99
43741;BME280;29352;48.708;9.290;2023-02-21T15:19:34;97794.00;;;10.49;46.35
43741;BME280;29352;48.708;9.290;2023-02-21T15:22:20;97797.88;;;10.53;46.25
43741;BME280;29352;48.708;9.290;2023-02-21T15:33:02;97782.38;;;10.36;46.36
43741;BME280;29352;48.708;9.290;2023-02-21T15:35:41;97799.13;;;9.93;46.16
43741;BME280;29352;48.708;9.290;2023-02-21T15:38:18;97789.19;;;10.32;46.37
43741;BME280;29352;48.708;9.290;2023-02-21T15:40:53;97789.22;;;10.01;47.29
43741;BME280;29352;48.708;9.290;2023-02-21T15:44:14;97780.47;;;9.93;47.92
43741;BME280;29352;48.708;9.290;2023-02-21T15:46:36;97777.53;;;10.02;47.72
43741;BME280;29352;48.708;9.290;2023-02-21T15:49:06;97783.56;;;9.90;47.68
43741;BME280;29352;48.708;9.290;2023-02-21T15:51:37;97777.75;;;9.62;48.00
43741;BME280;29352;48.708;9.290;2023-02-21T15:56:35;97775.63;;;9.32;48.55
43741;BME280;29352;48.708;9.290;2023-02-21T15:59:11;97770.59;;;9.56;47.82
43741;BME280;29352;48.708;9.290;2023-02-21T16:04:39;97778.94;;;9.21;48.24
43741;BME280;29352;48.708;9.290;2023-02-21T16:07:16;97774.66;;;9.20;48.72
43741;BME280;29352;48.708;9.290;2023-02-21T16:09:59;97773.28;;;8.97;48.99
43741;BME280;29352;48.708;9.290;2023-02-21T16:12:34;97767.19;;;8.70;49.32
43741;BME280;29352;48.708;9.290;2023-02-21T16:17:42;97762.72;;;8.18;51.56
43741;BME280;29352;48.708;9.290;2023-02-21T16:20:31;97762.53;;;8.19;52.05
43741;BME280;29352;48.708;9.290;2023-02-21T16:23:13;97771.69;;;7.97;51.83
43741;BME280;29352;48.708;9.290;2023-02-21T16:25:54;97767.41;;;7.96;51.70
43741;BME280;29352;48.708;9.290;2023-02-21T16:28:42;97773.53;;;7.83;51.83
43741;BME280;29352;48.708;9.290;2023-02-21T16:31:15;97762.50;;;7.86;51.71
43741;BME280;29352;48.708;9.290;2023-02-21T16:33:48;97767.94;;;7.65;52.25
43741;BME280;29352;48.708;9.290;2023-02-21T16:36:23;97768.66;;;7.39;52.34
43741;BME280;29352;48.708;9.290;2023-02-21T16:38:51;97760.31;;;7.48;52.58
43741;BME280;29352;48.708;9.290;2023-02-21T16:41:18;97770.09;;;7.34;52.55
43741;BME280;29352;48.708;9.290;2023-02-21T16:43:44;97776.31;;;7.14;53.56
43741;BME280;29352;48.708;9.290;2023-02-21T16:46:11;97767.16;;;6.75;54.45
43741;BME280;29352;48.708;9.290;2023-02-21T16:48:38;97772.34;;;6.33;55.76
43741;BME280;29352;48.708;9.290;2023-02-21T16:51:08;97767.63;;;6.29;55.65
43741;BME280;29352;48.708;9.290;2023-02-21T16:53:40;97768.91;;;6.11;56.28
43741;BME280;29352;48.708;9.290;2023-02-21T16:56:06;97774.84;;;5.71;57.13
43741;BME280;29352;48.708;9.290;2023-02-21T16:58:39;97776.75;;;5.77;56.85
43741;BME280;29352;48.708;9.290;2023-02-21T17:01:13;97779.59;;;5.60;57.28
43741;BME280;29352;48.708;9.290;2023-02-21T17:03:41;97774.97;;;5.48;57.17
43741;BME280;29352;48.708;9.290;2023-02-21T17:06:15;97779.88;;;5.51;57.13
43741;BME280;29352;48.708;9.290;2023-02-21T17:08:44;97780.09;;;5.34;57.40
43741;BME280;29352;48.708;9.290;2023-02-21T17:11:10;97782.53;;;4.85;59.04
43741;BME280;29352;48.708;9.290;2023-02-21T17:13:35;97774.69;;;4.62;59.63